Terminal Aerodrome Forecast
Issued by NWS Quad Cities IA IL

Home | Current Version | Previous Version | Text Only | Print | Product List | Glossary On
Versions: 1 2 3 4 5 6 7 8 9 10 11 12 13 14 15 16 17 18
000
FTUS43 KDVN 300200 AAA
TAFMLI
TAF AMD
KMLI 300259Z 3003/3024 30012KT P6SM SKC
     FM300500 27008KT P6SM SKC
     FM301500 25012G19KT P6SM SKC=

USA.gov is the U.S. government's official web portal to all federal, state and local government web resources and services.